Time;durP1;ratioP1;P1;durP2;ratioP2;P2;SDS_P1;SDS_P2;PMS_P1;PMS_P2;Temp;Humidity;BMP_temperature;BMP_pressure;BME280_temperature;BME280_humidity;BME280_pressure;Samples;Min_cycle;Max_cycle;Signal;HPM_P1;HPM_P2
2021/01/01 21:34:09;;;;;;;;;14.75;14.25;;;;;10.71;53.67;98085.13;6115438;22;2813526;-82
2021/01/01 21:37:02;;;;;;;;;15.75;12.75;;;;;10.70;53.66;98086.19;6124847;22;102806;-83
2021/01/01 21:39:38;;;;;;;;;13.25;11.00;;;;;10.71;53.53;98090.53;6119211;22;102830;-82
2021/01/01 21:42:10;;;;;;;;;11.75;11.25;;;;;10.69;53.78;98080.97;6121521;22;104441;-83
2021/01/01 21:44:59;;;;;;;;;15.50;12.50;;;;;10.71;53.76;98087.84;6119510;22;102809;-83
2021/01/01 21:47:45;;;;;;;;;18.75;12.00;;;;;10.69;53.66;98087.22;6117905;22;102836;-83
2021/01/01 21:50:14;;;;;;;;;13.75;12.25;;;;;10.70;53.78;98090.75;6030255;22;102785;-83
2021/01/01 21:52:41;;;;;;;;;15.25;14.25;;;;;10.70;53.43;98088.88;6112924;22;103887;-83
2021/01/01 21:55:09;;;;;;;;;12.75;11.00;;;;;10.70;53.56;98091.59;6122296;22;102976;-83
2021/01/01 21:57:36;;;;;;;;;14.75;11.00;;;;;10.72;53.45;98096.75;6112467;22;102785;-83
2021/01/01 22:00:04;;;;;;;;;13.50;12.00;;;;;10.71;53.15;98092.41;6117052;22;102916;-83
2021/01/01 22:02:32;;;;;;;;;13.50;12.75;;;;;10.69;53.63;98087.22;6115781;22;104378;-83
2021/01/01 22:05:06;;;;;;;;;12.50;10.75;;;;;10.70;53.41;98088.03;6119194;22;102723;-83
2021/01/01 22:07:34;;;;;;;;;10.00;5.00;;;;;10.71;53.65;98085.13;6118671;22;102791;-83
2021/01/01 22:10:06;;;;;;;;;14.00;12.75;;;;;10.70;53.50;98088.03;6097614;22;102992;-83
2021/01/01 22:12:34;;;;;;;;;11.00;8.50;;;;;10.70;53.68;98097.00;6086616;22;104049;-83
2021/01/01 22:15:01;;;;;;;;;14.00;11.00;;;;;10.68;53.28;98085.53;6123589;22;102766;-83
2021/01/01 22:17:28;;;;;;;;;15.25;11.00;;;;;10.69;53.63;98086.38;6119419;22;102557;-83
2021/01/01 22:19:56;;;;;;;;;11.75;11.00;;;;;10.68;53.71;98084.72;6123562;22;102840;-83
2021/01/01 22:22:24;;;;;;;;;17.25;12.25;;;;;10.69;53.32;98080.97;6142215;22;109162;-83
2021/01/01 22:24:52;;;;;;;;;13.50;10.00;;;;;10.67;53.42;98085.78;6120945;22;102731;-83
2021/01/01 22:27:19;;;;;;;;;13.50;10.50;;;;;10.68;53.60;98093.66;6117453;22;102584;-82
2021/01/01 22:29:47;;;;;;;;;12.00;10.75;;;;;10.67;53.44;98083.88;6120024;22;102571;-82
2021/01/01 22:32:14;;;;;;;;;12.75;11.75;;;;;10.66;53.63;98087.66;6108699;22;103927;-83
2021/01/01 22:34:41;;;;;;;;;12.50;11.50;;;;;10.67;53.28;98081.19;6092468;22;102904;-82
2021/01/01 22:37:07;;;;;;;;;13.50;12.75;;;;;10.67;53.55;98092.00;5972577;22;102866;-83
2021/01/01 22:39:34;;;;;;;;;14.50;12.25;;;;;10.68;53.37;98095.53;5984051;22;103012;-82
2021/01/01 22:42:01;;;;;;;;;14.00;12.25;;;;;10.66;53.37;98086.81;6007899;22;103906;-83
2021/01/01 22:44:28;;;;;;;;;17.50;10.25;;;;;10.67;53.37;98089.28;5998671;22;102935;-82
2021/01/01 22:47:00;;;;;;;;;12.75;11.00;;;;;10.68;53.11;98093.66;6029347;22;102743;-83
2021/01/01 22:49:27;;;;;;;;;14.75;13.00;;;;;10.67;53.22;98089.28;6022784;22;102874;-82
2021/01/01 22:51:54;;;;;;;;;11.00;11.00;;;;;10.65;53.59;98091.38;5997309;22;109025;-83
2021/01/01 22:54:21;;;;;;;;;14.00;12.25;;;;;10.63;53.64;98082.66;5995980;22;102706;-83
2021/01/01 22:56:54;;;;;;;;;13.00;10.50;;;;;10.66;53.19;98098.47;6000581;22;102770;-83
2021/01/01 22:59:27;;;;;;;;;12.00;9.00;;;;;10.66;53.48;98094.94;6012809;22;102874;-82
2021/01/01 23:01:55;;;;;;;;;14.25;10.75;;;;;10.66;53.36;98093.06;5994632;22;109383;-82
2021/01/01 23:04:29;;;;;;;;;12.00;10.75;;;;;10.65;53.47;98085.97;5998371;22;102751;-83
2021/01/01 23:06:56;;;;;;;;;11.00;8.75;;;;;10.65;53.24;98088.69;5996217;22;102773;-83
2021/01/01 23:09:28;;;;;;;;;14.50;13.50;;;;;10.65;53.37;98083.28;5973818;22;102786;-82
2021/01/01 23:11:57;;;;;;;;;12.25;10.25;;;;;10.66;53.28;98082.25;6031524;22;109616;-82
2021/01/01 23:14:27;;;;;;;;;12.25;10.50;;;;;10.65;53.59;98080.56;6027020;22;102617;-82
2021/01/01 23:16:54;;;;;;;;;12.00;12.00;;;;;10.67;53.22;98081.19;6006177;22;102988;-83
2021/01/01 23:19:43;;;;;;;;;12.00;10.25;;;;;10.65;53.38;98083.28;5980741;22;102913;-82
2021/01/01 23:22:10;;;;;;;;;13.25;12.75;;;;;10.66;53.63;98087.66;5924969;22;108661;-82
2021/01/01 23:24:40;;;;;;;;;13.75;11.00;;;;;10.66;53.46;98082.25;5968915;22;102681;-82
2021/01/01 23:27:10;;;;;;;;;10.50;10.00;;;;;10.65;53.41;98096.78;6028707;22;102499;-83
2021/01/01 23:29:52;;;;;;;;;13.75;10.00;;;;;10.65;53.29;98094.09;6028300;22;102888;-84
2021/01/01 23:32:49;;;;;;;;;12.25;11.00;;;;;10.66;53.40;98103.88;6025272;22;103885;-84
2021/01/01 23:35:18;;;;;;;;;14.75;11.00;;;;;10.62;53.32;98091.00;5950030;22;102587;-84
2021/01/01 23:38:02;;;;;;;;;13.75;11.00;;;;;10.65;53.35;98110.31;5968228;22;102874;-84
2021/01/01 23:40:46;;;;;;;;;12.50;10.75;;;;;10.65;53.36;98112.19;6021479;22;102821;-83
2021/01/01 23:43:39;;;;;;;;;14.50;11.50;;;;;10.64;53.53;98111.34;6026207;22;104363;-84
2021/01/01 23:46:13;;;;;;;;;13.25;10.00;;;;;10.65;53.22;98117.59;5948718;22;102796;-84
2021/01/01 23:48:43;;;;;;;;;15.00;10.75;;;;;10.65;53.26;98121.13;6026074;22;102644;-82
2021/01/01 23:51:11;;;;;;;;;11.25;9.50;;;;;10.64;53.07;98121.34;6025059;22;102769;-82
2021/01/01 23:53:38;;;;;;;;;15.00;11.25;;;;;10.63;53.13;98115.09;6028200;22;104347;-83
2021/01/01 23:56:06;;;;;;;;;15.00;11.00;;;;;10.63;53.21;98116.97;6027099;22;102656;-83
2021/01/01 23:58:33;;;;;;;;;10.25;8.25;;;;;10.63;53.16;98115.09;6028366;22;102791;-82
